Time;durP1;ratioP1;P1;durP2;ratioP2;P2;SDS_P1;SDS_P2;PMS_P1;PMS_P2;Temp;Humidity;BMP_temperature;BMP_pressure;BME280_temperature;BME280_humidity;BME280_pressure;Samples;Min_cycle;Max_cycle;Signal;HPM_P1;HPM_P2
2022/01/27 00:05:47;;;;;;;23.03;14.83;;;3.00;79.40;;;;;;5041755;28;20467;-51
2022/01/27 00:08:22;;;;;;;21.10;12.63;;;3.00;79.10;;;;;;5025984;28;20489;-51
2022/01/27 00:13:18;;;;;;;20.70;11.93;;;3.00;79.30;;;;;;5046772;28;20462;-51
2022/01/27 00:15:48;;;;;;;20.57;13.20;;;3.00;79.30;;;;;;5047276;28;20513;-51
2022/01/27 00:18:17;;;;;;;24.87;14.10;;;3.00;79.30;;;;;;5046679;28;20608;-51
2022/01/27 00:20:46;;;;;;;23.53;13.30;;;3.00;79.60;;;;;;5040760;28;20454;-51
2022/01/27 00:23:13;;;;;;;20.97;13.27;;;3.10;79.70;;;;;;5040909;28;20474;-51
2022/01/27 00:25:40;;;;;;;25.57;14.27;;;3.00;79.10;;;;;;5040958;28;20459;-51
2022/01/27 00:28:07;;;;;;;21.10;12.40;;;3.00;79.30;;;;;;5030685;28;20494;-51
2022/01/27 00:30:36;;;;;;;17.90;11.73;;;3.00;79.30;;;;;;5039096;28;20469;-51
2022/01/27 00:33:04;;;;;;;20.73;11.50;;;3.00;79.60;;;;;;5042692;28;21265;-51
2022/01/27 00:35:32;;;;;;;24.50;13.00;;;3.10;79.30;;;;;;5037970;28;20505;-52
2022/01/27 00:38:00;;;;;;;22.10;13.70;;;3.10;79.00;;;;;;5038595;28;20459;-51
2022/01/27 00:40:28;;;;;;;23.10;13.80;;;3.10;78.70;;;;;;5043326;28;20450;-51
2022/01/27 00:42:55;;;;;;;25.00;12.40;;;3.10;78.80;;;;;;5041406;28;20449;-51
2022/01/27 00:45:23;;;;;;;24.07;14.40;;;3.00;79.40;;;;;;5042615;28;20443;-51
2022/01/27 00:47:51;;;;;;;25.13;13.30;;;3.00;79.20;;;;;;5040999;28;20463;-51
2022/01/27 00:50:19;;;;;;;20.20;12.53;;;3.00;79.50;;;;;;5040781;28;20446;-51
2022/01/27 00:52:50;;;;;;;20.00;11.80;;;3.10;79.10;;;;;;5021701;28;20447;-51
2022/01/27 00:55:18;;;;;;;23.57;12.30;;;3.00;79.30;;;;;;5039924;28;20461;-51
2022/01/27 01:00:44;;;;;;;19.43;12.37;;;3.00;79.40;;;;;;5046142;28;20466;-51
2022/01/27 01:03:20;;;;;;;24.23;12.30;;;3.00;79.50;;;;;;5041531;28;20460;-51
2022/01/27 01:06:12;;;;;;;17.67;11.80;;;3.00;79.70;;;;;;5041739;28;20437;-51
2022/01/27 01:16:23;;;;;;;18.70;11.73;;;2.90;80.20;;;;;;5042141;28;20454;-51
2022/01/27 01:19:01;;;;;;;17.60;11.77;;;3.00;80.10;;;;;;5052864;28;20481;-51
2022/01/27 01:21:48;;;;;;;22.63;12.40;;;3.00;80.00;;;;;;5035575;28;20597;-51
2022/01/27 01:32:51;;;;;;;22.63;13.17;;;3.00;79.90;;;;;;5039604;28;20514;-51
2022/01/27 01:35:27;;;;;;;25.57;13.97;;;3.00;80.00;;;;;;5039443;28;20760;-51
2022/01/27 01:37:56;;;;;;;22.50;13.83;;;3.10;79.90;;;;;;5024637;28;20457;-51
2022/01/27 01:40:24;;;;;;;26.27;13.37;;;3.10;79.80;;;;;;5043427;28;20498;-51
2022/01/27 01:42:50;;;;;;;21.50;12.63;;;3.20;79.60;;;;;;5040857;28;20947;-51
2022/01/27 01:45:20;;;;;;;22.57;12.93;;;3.20;79.20;;;;;;5039587;28;20494;-51
2022/01/27 01:47:48;;;;;;;21.50;12.17;;;3.20;79.30;;;;;;5009330;28;20577;-51
2022/01/27 01:50:15;;;;;;;24.50;13.50;;;3.20;79.40;;;;;;5041718;28;20972;-51
2022/01/27 01:52:44;;;;;;;26.30;14.30;;;3.10;79.60;;;;;;5042431;28;20469;-51
2022/01/27 01:55:12;;;;;;;22.03;12.40;;;3.20;79.80;;;;;;5039610;28;20474;-51
2022/01/27 01:57:39;;;;;;;22.93;12.43;;;3.30;79.30;;;;;;5028468;28;20455;-51
2022/01/27 02:00:08;;;;;;;24.30;13.10;;;3.20;79.30;;;;;;5025380;28;20521;-51
2022/01/27 02:02:36;;;;;;;23.60;12.70;;;3.30;79.20;;;;;;5038268;28;20467;-51
2022/01/27 02:05:05;;;;;;;30.60;13.87;;;3.30;78.50;;;;;;5041053;28;20532;-51
2022/01/27 02:07:53;;;;;;;22.90;12.97;;;3.30;78.60;;;;;;5026869;28;20474;-51
2022/01/27 02:18:30;;;;;;;24.10;12.53;;;3.20;79.00;;;;;;5038614;28;20509;-51
2022/01/27 02:20:57;;;;;;;24.13;12.57;;;3.20;79.40;;;;;;5024407;28;20858;-51
2022/01/27 02:23:23;;;;;;;23.23;12.97;;;3.20;79.30;;;;;;5028964;28;20551;-51
2022/01/27 02:25:50;;;;;;;25.40;14.70;;;3.20;78.60;;;;;;5041399;28;20455;-51
2022/01/27 02:28:17;;;;;;;19.23;12.70;;;3.20;79.00;;;;;;5041390;28;20456;-51
2022/01/27 02:30:44;;;;;;;20.37;12.80;;;3.20;78.60;;;;;;5040690;28;20454;-51
2022/01/27 02:33:11;;;;;;;26.53;12.60;;;3.20;78.20;;;;;;5053554;28;20455;-51
2022/01/27 02:35:37;;;;;;;21.90;11.97;;;3.20;78.70;;;;;;5021509;28;20463;-51
2022/01/27 02:38:05;;;;;;;21.10;12.70;;;3.20;78.70;;;;;;5037343;28;20481;-51
2022/01/27 02:40:42;;;;;;;21.30;12.57;;;3.10;78.90;;;;;;5024928;28;20518;-51
2022/01/27 02:43:09;;;;;;;21.83;12.40;;;3.10;78.60;;;;;;5024857;28;21000;-51
2022/01/27 02:45:40;;;;;;;24.03;12.23;;;3.10;78.60;;;;;;5025920;28;20465;-51
2022/01/27 02:48:07;;;;;;;21.97;12.10;;;3.10;78.40;;;;;;5039465;28;20470;-48
2022/01/27 02:50:34;;;;;;;22.20;12.80;;;3.00;79.00;;;;;;5040684;28;20458;-48
2022/01/27 02:53:01;;;;;;;27.83;14.90;;;3.00;78.80;;;;;;5054835;28;20474;-48
2022/01/27 02:55:27;;;;;;;23.57;11.57;;;3.00;78.80;;;;;;5040680;28;20484;-48
2022/01/27 02:57:57;;;;;;;25.73;13.77;;;3.00;78.90;;;;;;5036932;28;20471;-48
2022/01/27 03:00:26;;;;;;;26.30;13.10;;;3.00;79.20;;;;;;5068346;28;20492;-48
2022/01/27 03:02:53;;;;;;;24.33;14.30;;;3.00;79.60;;;;;;5038736;28;20454;-48
2022/01/27 03:05:20;;;;;;;30.80;18.43;;;2.90;79.90;;;;;;5042865;28;20458;-48
2022/01/27 03:07:48;;;;;;;31.27;16.30;;;2.90;79.80;;;;;;5042710;28;20459;-48
2022/01/27 03:10:16;;;;;;;22.00;12.83;;;2.90;80.10;;;;;;5054812;28;20460;-48
2022/01/27 03:12:55;;;;;;;22.83;12.10;;;3.00;80.00;;;;;;5038950;28;20843;-48
2022/01/27 03:15:22;;;;;;;25.30;13.37;;;3.00;79.70;;;;;;5039980;28;20489;-48
2022/01/27 03:17:49;;;;;;;25.50;12.20;;;3.00;79.60;;;;;;5035879;28;20461;-48
2022/01/27 03:20:17;;;;;;;22.40;12.17;;;2.90;79.30;;;;;;5022655;28;20490;-48
2022/01/27 03:22:44;;;;;;;18.43;12.27;;;2.90;79.60;;;;;;5040972;28;20480;-48
2022/01/27 03:25:11;;;;;;;20.50;11.40;;;2.90;80.10;;;;;;5039620;28;20459;-48
2022/01/27 03:27:44;;;;;;;23.10;12.87;;;2.90;80.30;;;;;;5025771;28;20495;-48
2022/01/27 03:30:12;;;;;;;25.10;14.03;;;3.00;79.60;;;;;;5038873;28;20999;-48
2022/01/27 03:32:40;;;;;;;24.70;13.00;;;2.90;80.00;;;;;;5042710;28;20605;-48
2022/01/27 03:35:09;;;;;;;25.93;15.67;;;2.90;80.10;;;;;;5064660;28;20459;-50
2022/01/27 03:37:36;;;;;;;20.03;12.87;;;2.90;79.70;;;;;;5041709;28;20828;-50
2022/01/27 03:40:03;;;;;;;20.17;13.30;;;3.00;79.70;;;;;;5046563;28;20905;-51
2022/01/27 03:42:30;;;;;;;21.50;13.10;;;2.90;78.90;;;;;;5039277;28;20469;-50
2022/01/27 03:44:57;;;;;;;19.83;11.43;;;2.90;79.10;;;;;;5056403;28;20464;-48
2022/01/27 03:47:24;;;;;;;26.00;12.80;;;2.90;79.00;;;;;;5039225;28;20466;-48
2022/01/27 03:49:50;;;;;;;18.90;11.13;;;2.90;79.00;;;;;;5027178;28;20979;-48
2022/01/27 03:52:18;;;;;;;20.93;13.10;;;2.90;79.60;;;;;;5035333;28;20987;-48
2022/01/27 03:54:44;;;;;;;23.30;12.20;;;2.90;79.40;;;;;;5027601;28;20548;-48
2022/01/27 03:57:11;;;;;;;20.63;10.47;;;2.90;78.90;;;;;;5037434;28;20471;-57
2022/01/27 03:59:38;;;;;;;21.53;11.60;;;2.90;78.60;;;;;;5039282;28;20494;-48
2022/01/27 04:02:05;;;;;;;24.90;12.63;;;2.90;78.90;;;;;;5022952;28;20451;-48
2022/01/27 04:04:32;;;;;;;21.30;11.03;;;2.90;78.40;;;;;;5038375;28;20554;-48
2022/01/27 04:06:59;;;;;;;24.23;12.30;;;2.90;79.00;;;;;;5034891;28;20482;-48
2022/01/27 04:09:28;;;;;;;24.47;11.90;;;2.90;78.90;;;;;;5040164;28;20467;-48
2022/01/27 04:11:55;;;;;;;21.73;10.70;;;2.90;78.80;;;;;;5032965;28;20452;-48
2022/01/27 04:14:22;;;;;;;22.93;11.77;;;2.90;78.70;;;;;;5023284;28;20458;-48
2022/01/27 04:16:49;;;;;;;24.23;12.27;;;2.90;78.70;;;;;;5040071;28;21065;-48
2022/01/27 04:19:15;;;;;;;20.73;11.20;;;2.90;78.60;;;;;;5052955;28;20894;-48
2022/01/27 04:21:49;;;;;;;21.10;11.97;;;2.90;79.00;;;;;;5038452;28;20454;-48
2022/01/27 04:24:17;;;;;;;23.23;12.63;;;2.90;78.80;;;;;;5039324;28;20493;-48
2022/01/27 04:26:49;;;;;;;24.63;12.93;;;2.90;78.70;;;;;;5038744;28;20457;-49
2022/01/27 04:29:19;;;;;;;22.70;12.80;;;2.90;79.00;;;;;;5028868;28;20458;-48
2022/01/27 04:31:47;;;;;;;23.87;12.70;;;2.90;79.60;;;;;;5022075;28;20912;-48
2022/01/27 04:34:14;;;;;;;23.23;13.67;;;2.80;79.10;;;;;;5032000;28;20946;-48
2022/01/27 04:36:44;;;;;;;22.10;12.77;;;2.80;79.20;;;;;;5040287;28;20450;-48
2022/01/27 04:49:16;;;;;;;27.97;12.70;;;2.80;79.40;;;;;;5044790;28;20467;-47
2022/01/27 04:51:43;;;;;;;26.83;13.20;;;2.80;79.40;;;;;;5043175;28;20462;-48
2022/01/27 04:56:39;;;;;;;28.13;14.20;;;2.80;79.40;;;;;;5037303;28;21064;-47
2022/01/27 04:59:15;;;;;;;20.53;12.53;;;2.80;79.40;;;;;;5041811;28;20465;-48
2022/01/27 05:01:56;;;;;;;19.60;11.10;;;2.80;79.80;;;;;;5044307;28;20458;-47
2022/01/27 05:04:29;;;;;;;24.17;12.17;;;2.80;79.40;;;;;;5039152;28;20459;-48
2022/01/27 05:06:56;;;;;;;20.53;12.10;;;2.80;79.70;;;;;;5041132;28;20458;-47
2022/01/27 05:09:24;;;;;;;26.70;14.43;;;2.70;80.10;;;;;;5039127;28;20663;-47
2022/01/27 05:11:55;;;;;;;19.20;12.03;;;2.80;80.00;;;;;;5041790;28;20467;-47
2022/01/27 05:14:25;;;;;;;21.70;12.57;;;2.80;79.40;;;;;;5037516;28;20467;-47
2022/01/27 05:16:53;;;;;;;22.00;11.70;;;2.70;79.80;;;;;;5042374;28;20956;-48
2022/01/27 05:19:20;;;;;;;23.37;13.27;;;2.70;79.80;;;;;;5024735;28;20490;-48
2022/01/27 05:21:47;;;;;;;26.83;11.03;;;2.70;80.00;;;;;;5022714;28;20546;-48
2022/01/27 05:24:20;;;;;;;21.17;11.70;;;2.70;80.00;;;;;;5042434;28;20479;-47
2022/01/27 05:26:48;;;;;;;23.53;11.80;;;2.70;80.10;;;;;;5040013;28;20461;-47
2022/01/27 05:29:15;;;;;;;18.03;10.30;;;2.70;80.20;;;;;;5032203;28;21016;-47
2022/01/27 05:31:43;;;;;;;24.40;11.73;;;2.70;80.30;;;;;;5030064;28;20493;-47
2022/01/27 05:34:10;;;;;;;21.30;12.07;;;2.80;80.10;;;;;;5040471;28;20462;-47
2022/01/27 05:36:37;;;;;;;15.90;10.23;;;2.80;80.00;;;;;;5043238;28;20481;-47
2022/01/27 05:39:04;;;;;;;19.10;10.10;;;2.80;80.00;;;;;;5042226;28;20459;-47
2022/01/27 05:41:31;;;;;;;19.70;10.30;;;2.80;80.10;;;;;;5042072;28;20546;-47
2022/01/27 05:43:59;;;;;;;30.03;12.07;;;2.80;80.00;;;;;;5041288;28;20460;-47
2022/01/27 05:46:26;;;;;;;26.07;12.90;;;2.80;80.10;;;;;;5040119;28;20551;-47
2022/01/27 05:48:53;;;;;;;19.13;10.63;;;2.80;80.40;;;;;;5031295;28;20823;-47
2022/01/27 05:51:20;;;;;;;17.87;10.20;;;2.80;80.20;;;;;;5039366;28;20458;-47
2022/01/27 05:53:47;;;;;;;16.17;9.53;;;2.80;80.10;;;;;;5040145;28;20465;-47
2022/01/27 05:56:14;;;;;;;21.97;11.10;;;2.80;80.40;;;;;;5039903;28;20477;-47
2022/01/27 05:58:43;;;;;;;15.30;10.83;;;2.80;80.30;;;;;;5040326;28;20990;-47
2022/01/27 06:01:12;;;;;;;23.53;10.33;;;2.80;80.50;;;;;;5044524;28;20994;-47
2022/01/27 06:03:39;;;;;;;22.40;10.60;;;2.80;80.50;;;;;;5057998;28;20462;-48
2022/01/27 06:06:06;;;;;;;21.30;11.83;;;2.80;80.20;;;;;;5040383;28;20550;-48
2022/01/27 06:08:33;;;;;;;21.10;10.80;;;2.90;80.50;;;;;;5038685;28;20554;-48
2022/01/27 06:11:00;;;;;;;19.67;10.67;;;2.90;80.80;;;;;;5045788;28;20462;-48
2022/01/27 06:13:27;;;;;;;18.30;9.83;;;2.90;80.70;;;;;;5042907;28;22084;-48
2022/01/27 06:15:53;;;;;;;24.43;13.10;;;3.00;80.30;;;;;;5042619;28;20509;-48
2022/01/27 06:18:20;;;;;;;17.07;10.50;;;3.00;79.80;;;;;;5025326;28;20452;-48
2022/01/27 06:20:47;;;;;;;19.53;9.83;;;3.00;80.00;;;;;;5045570;28;20914;-48
2022/01/27 06:23:15;;;;;;;22.10;10.73;;;3.10;80.10;;;;;;5043191;28;20487;-48
2022/01/27 06:25:42;;;;;;;19.03;9.83;;;3.10;80.20;;;;;;5024171;28;20461;-48
2022/01/27 06:28:09;;;;;;;18.47;10.20;;;3.10;79.70;;;;;;5041991;28;20460;-48
2022/01/27 06:30:36;;;;;;;17.63;10.70;;;3.20;79.20;;;;;;5043608;28;20462;-48
2022/01/27 06:33:05;;;;;;;15.10;9.17;;;3.10;79.70;;;;;;5037512;28;20450;-48
2022/01/27 06:35:32;;;;;;;18.07;9.33;;;3.10;79.70;;;;;;5042970;28;20449;-48
2022/01/27 06:37:59;;;;;;;19.40;10.73;;;3.20;79.70;;;;;;5039340;28;20462;-48
2022/01/27 06:40:26;;;;;;;20.87;13.33;;;3.20;79.70;;;;;;5030774;28;20565;-48
2022/01/27 06:42:53;;;;;;;20.70;12.17;;;3.20;80.00;;;;;;5041319;28;20528;-48
2022/01/27 06:45:20;;;;;;;18.13;11.43;;;3.20;80.20;;;;;;5040718;28;20485;-48
2022/01/27 06:47:47;;;;;;;17.70;9.53;;;3.20;80.20;;;;;;5040912;28;20899;-48
2022/01/27 06:50:14;;;;;;;22.13;10.80;;;3.20;79.80;;;;;;5042798;28;20459;-48
2022/01/27 06:52:41;;;;;;;18.03;10.70;;;3.20;80.00;;;;;;5038706;28;20956;-48
2022/01/27 06:55:11;;;;;;;18.80;9.93;;;3.20;79.70;;;;;;5030072;28;20461;-48
2022/01/27 06:57:38;;;;;;;21.23;10.83;;;3.20;79.80;;;;;;5043549;28;20887;-48
2022/01/27 07:00:07;;;;;;;17.20;10.70;;;3.10;80.20;;;;;;5041559;28;20487;-48
2022/01/27 07:02:34;;;;;;;24.40;11.87;;;3.10;80.50;;;;;;5040455;28;20550;-48
2022/01/27 07:05:00;;;;;;;17.40;9.07;;;3.10;80.10;;;;;;5040801;28;21165;-48
2022/01/27 07:07:27;;;;;;;19.87;10.40;;;3.10;80.30;;;;;;5045548;28;20454;-48
2022/01/27 07:09:54;;;;;;;13.60;8.57;;;3.10;80.30;;;;;;5053963;28;20458;-48
2022/01/27 07:12:22;;;;;;;14.40;8.90;;;3.10;80.00;;;;;;5052987;28;20461;-48
2022/01/27 07:14:48;;;;;;;19.93;10.73;;;3.10;80.20;;;;;;5054291;28;20469;-48
2022/01/27 07:17:18;;;;;;;20.50;10.33;;;3.10;80.50;;;;;;5051766;28;20475;-48
2022/01/27 07:19:48;;;;;;;19.00;10.97;;;3.00;80.80;;;;;;5038275;28;21026;-48
2022/01/27 07:22:15;;;;;;;21.20;11.30;;;3.00;80.70;;;;;;5040155;28;20462;-48
2022/01/27 07:24:42;;;;;;;17.53;10.13;;;3.10;80.90;;;;;;5037181;28;20951;-48
2022/01/27 07:27:09;;;;;;;28.50;12.73;;;3.10;80.50;;;;;;5036151;28;20506;-48
2022/01/27 07:29:36;;;;;;;16.23;9.70;;;3.00;80.60;;;;;;5037959;28;20862;-48
2022/01/27 07:32:03;;;;;;;20.53;9.23;;;3.00;80.70;;;;;;5036426;28;20462;-47
2022/01/27 07:34:39;;;;;;;17.47;9.90;;;2.90;80.90;;;;;;5040646;28;20520;-48
2022/01/27 07:37:11;;;;;;;16.07;9.47;;;2.90;81.40;;;;;;5039181;28;20454;-49
2022/01/27 07:39:40;;;;;;;16.50;9.90;;;2.90;81.70;;;;;;5038131;28;20451;-49
2022/01/27 07:42:07;;;;;;;19.50;10.03;;;2.90;81.80;;;;;;5036343;28;20884;-47
2022/01/27 07:44:34;;;;;;;18.47;10.60;;;2.90;81.90;;;;;;5024016;28;20471;-47
2022/01/27 07:47:01;;;;;;;18.50;10.60;;;2.90;82.20;;;;;;5044259;28;20442;-47
2022/01/27 07:49:31;;;;;;;20.73;11.43;;;2.90;82.00;;;;;;5040212;28;21050;-47
2022/01/27 07:51:57;;;;;;;19.90;10.63;;;2.90;82.00;;;;;;5038257;28;20464;-47
2022/01/27 07:54:25;;;;;;;21.70;10.07;;;2.90;82.30;;;;;;5036431;28;20478;-47
2022/01/27 07:56:52;;;;;;;16.00;9.80;;;2.90;81.80;;;;;;5038442;28;20467;-47
2022/01/27 07:59:19;;;;;;;21.00;9.37;;;2.90;81.80;;;;;;5026147;28;20985;-47
2022/01/27 08:01:46;;;;;;;19.87;10.70;;;3.00;81.50;;;;;;5049040;28;20525;-47
2022/01/27 08:04:13;;;;;;;15.80;9.27;;;3.00;81.90;;;;;;5040872;28;20548;-47
2022/01/27 08:06:40;;;;;;;15.93;10.20;;;3.00;81.90;;;;;;5023155;28;20496;-47
2022/01/27 08:09:07;;;;;;;14.87;9.90;;;3.00;81.60;;;;;;5027740;28;20463;-47
2022/01/27 08:11:39;;;;;;;18.40;9.33;;;3.00;81.70;;;;;;5036550;28;20462;-47
2022/01/27 08:14:06;;;;;;;18.67;9.83;;;3.00;81.90;;;;;;5036385;28;20831;-47
2022/01/27 08:16:33;;;;;;;19.80;11.03;;;3.00;82.00;;;;;;5049099;28;20470;-48
2022/01/27 08:19:00;;;;;;;17.90;8.90;;;3.00;81.90;;;;;;5041178;28;20486;-47
2022/01/27 08:21:27;;;;;;;18.87;11.23;;;3.00;82.20;;;;;;5044326;28;20494;-49
2022/01/27 08:23:56;;;;;;;16.50;9.07;;;3.00;82.30;;;;;;5039230;28;21420;-47
2022/01/27 08:26:41;;;;;;;17.33;10.30;;;3.00;82.20;;;;;;5042180;28;20458;-47
2022/01/27 08:29:13;;;;;;;19.23;10.33;;;3.00;82.50;;;;;;5042961;28;20496;-48
2022/01/27 08:34:30;;;;;;;23.17;11.30;;;3.00;82.80;;;;;;5042370;28;20549;-48
2022/01/27 08:36:59;;;;;;;17.77;10.23;;;2.90;83.20;;;;;;5039115;28;20489;-48
2022/01/27 08:39:25;;;;;;;19.97;10.83;;;2.90;83.50;;;;;;5028802;28;20992;-48
2022/01/27 08:41:52;;;;;;;23.50;10.70;;;3.00;83.60;;;;;;5038444;28;20482;-48
2022/01/27 08:44:19;;;;;;;20.10;10.93;;;3.00;83.80;;;;;;5040921;28;20853;-48
2022/01/27 08:46:46;;;;;;;21.43;10.33;;;3.00;83.90;;;;;;5039919;28;20458;-48
2022/01/27 08:49:13;;;;;;;26.10;13.37;;;3.00;83.90;;;;;;5043761;28;20880;-48
2022/01/27 08:51:40;;;;;;;20.67;11.90;;;3.10;83.70;;;;;;5040968;28;20489;-49
2022/01/27 08:54:07;;;;;;;22.73;11.87;;;3.10;83.60;;;;;;5038973;28;20523;-48
2022/01/27 08:56:34;;;;;;;19.07;11.33;;;3.10;83.80;;;;;;5022758;28;20482;-48
2022/01/27 08:59:01;;;;;;;19.03;10.83;;;3.00;84.10;;;;;;5038176;28;20458;-48
2022/01/27 09:01:28;;;;;;;22.00;12.23;;;3.10;84.20;;;;;;5043076;28;20497;-47
2022/01/27 09:03:55;;;;;;;20.70;10.97;;;3.10;84.10;;;;;;5036414;28;20466;-47
2022/01/27 09:06:22;;;;;;;18.80;11.47;;;3.10;84.00;;;;;;5039113;28;20459;-48
2022/01/27 09:08:50;;;;;;;20.80;11.60;;;3.10;84.10;;;;;;5041362;28;20459;-48
2022/01/27 09:11:17;;;;;;;17.97;10.80;;;3.20;84.00;;;;;;5033085;28;20573;-48
2022/01/27 09:13:44;;;;;;;23.37;11.30;;;3.20;83.80;;;;;;5039076;28;20465;-48
2022/01/27 09:16:11;;;;;;;18.63;11.63;;;3.30;83.70;;;;;;5035096;28;20976;-48
2022/01/27 09:18:38;;;;;;;19.77;11.80;;;3.30;83.80;;;;;;5024101;28;20458;-48
2022/01/27 09:21:11;;;;;;;19.30;11.20;;;3.30;84.00;;;;;;5054545;28;20524;-47
2022/01/27 09:23:38;;;;;;;25.43;12.87;;;3.30;83.80;;;;;;5037429;28;21116;-47
2022/01/27 09:26:10;;;;;;;20.27;11.73;;;3.40;83.70;;;;;;5043262;28;20968;-47
2022/01/27 09:28:36;;;;;;;21.00;11.30;;;3.40;83.70;;;;;;5041011;28;20462;-47
2022/01/27 09:31:04;;;;;;;17.63;10.00;;;3.40;83.50;;;;;;5038742;28;20478;-47
2022/01/27 09:33:31;;;;;;;19.93;11.70;;;3.40;83.70;;;;;;5028418;28;20574;-48
2022/01/27 09:35:57;;;;;;;20.90;11.63;;;3.40;83.60;;;;;;5038020;28;20467;-49
2022/01/27 09:38:24;;;;;;;23.87;9.73;;;3.40;84.00;;;;;;5019052;28;20514;-48
2022/01/27 09:40:52;;;;;;;18.70;10.73;;;3.40;83.90;;;;;;5044165;28;20549;-49
2022/01/27 09:43:19;;;;;;;20.00;9.87;;;3.40;84.10;;;;;;5040511;28;20461;-49
2022/01/27 09:45:47;;;;;;;19.77;10.40;;;3.50;84.20;;;;;;5040409;28;20552;-48
2022/01/27 09:48:16;;;;;;;24.10;10.40;;;3.50;84.00;;;;;;5040041;28;20460;-48
2022/01/27 09:53:23;;;;;;;16.77;10.90;;;3.60;83.40;;;;;;5047912;28;20457;-48
2022/01/27 09:55:50;;;;;;;18.20;10.73;;;3.60;83.30;;;;;;5044133;28;20904;-48
2022/01/27 09:58:16;;;;;;;18.40;11.17;;;3.70;83.20;;;;;;5038968;28;20471;-48
2022/01/27 10:00:46;;;;;;;17.27;8.80;;;3.70;83.30;;;;;;5018609;28;20498;-48
2022/01/27 10:03:20;;;;;;;20.77;10.13;;;3.70;83.10;;;;;;5041707;28;20464;-48
2022/01/27 10:06:10;;;;;;;17.20;10.40;;;3.70;83.00;;;;;;5034015;28;20454;-48
2022/01/27 10:08:40;;;;;;;17.67;10.77;;;3.70;82.90;;;;;;5037789;28;20460;-48
2022/01/27 10:11:18;;;;;;;15.00;9.70;;;3.80;82.80;;;;;;5054635;28;20846;-48
2022/01/27 10:13:47;;;;;;;16.93;10.27;;;3.80;82.70;;;;;;5041251;28;20985;-48
2022/01/27 10:16:34;;;;;;;15.20;8.93;;;3.80;82.80;;;;;;5040583;28;20601;-48
2022/01/27 10:19:08;;;;;;;14.17;8.53;;;3.90;82.70;;;;;;5023132;28;20549;-48
2022/01/27 10:21:37;;;;;;;15.10;9.20;;;3.90;82.60;;;;;;5038750;28;20494;-48
2022/01/27 10:24:19;;;;;;;16.33;9.13;;;3.90;82.50;;;;;;5036188;28;20487;-48
2022/01/27 10:26:54;;;;;;;15.30;8.80;;;3.90;82.30;;;;;;5037554;28;20989;-48
2022/01/27 10:29:47;;;;;;;17.37;9.50;;;3.90;82.40;;;;;;5039265;28;20799;-48
2022/01/27 10:32:14;;;;;;;15.67;8.57;;;3.90;82.30;;;;;;5041921;28;20463;-48
2022/01/27 10:35:01;;;;;;;17.97;10.07;;;4.00;82.30;;;;;;5037045;28;20914;-48
2022/01/27 10:37:38;;;;;;;15.77;8.57;;;4.00;82.40;;;;;;5040762;28;20552;-48
2022/01/27 10:40:06;;;;;;;13.47;8.53;;;4.00;82.30;;;;;;5022681;28;20807;-48
2022/01/27 10:42:38;;;;;;;12.37;8.33;;;4.10;82.00;;;;;;5040145;28;20890;-48
2022/01/27 10:45:07;;;;;;;18.83;8.53;;;4.10;82.20;;;;;;5043395;28;20439;-48
2022/01/27 10:47:42;;;;;;;14.83;9.80;;;4.20;82.00;;;;;;5042070;28;20547;-48
2022/01/27 10:50:10;;;;;;;17.87;10.57;;;4.20;82.00;;;;;;5026319;28;20522;-48
2022/01/27 10:52:44;;;;;;;15.00;9.07;;;4.20;81.30;;;;;;5021408;28;20829;-47
2022/01/27 10:55:14;;;;;;;14.10;8.90;;;4.20;81.70;;;;;;5040325;28;20458;-48
2022/01/27 10:57:47;;;;;;;16.60;8.60;;;4.20;81.50;;;;;;5047695;28;20459;-48
2022/01/27 11:00:19;;;;;;;13.70;9.10;;;4.20;81.30;;;;;;5036558;28;20463;-48
2022/01/27 11:02:58;;;;;;;12.63;8.20;;;4.20;81.50;;;;;;5042228;28;20496;-48
2022/01/27 11:05:31;;;;;;;16.23;9.60;;;4.30;81.50;;;;;;5037169;28;20462;-48
2022/01/27 11:08:00;;;;;;;15.20;9.17;;;4.30;81.10;;;;;;5039589;28;20463;-48
2022/01/27 11:10:27;;;;;;;15.93;10.00;;;4.40;80.90;;;;;;5072302;28;20476;-48
2022/01/27 11:12:56;;;;;;;14.93;9.37;;;4.40;81.00;;;;;;5023801;28;20466;-48
2022/01/27 11:15:23;;;;;;;14.53;9.70;;;4.40;80.80;;;;;;5040845;28;20542;-48
2022/01/27 11:17:51;;;;;;;12.17;7.80;;;4.50;81.10;;;;;;5041669;28;20455;-48
2022/01/27 11:26:16;;;;;;;14.23;9.80;;;4.50;80.70;;;;;;5041610;28;20479;-48
2022/01/27 11:28:46;;;;;;;13.37;8.13;;;4.50;80.80;;;;;;5036794;28;20434;-48
2022/01/27 11:31:43;;;;;;;16.60;10.00;;;4.50;80.30;;;;;;5035177;28;20462;-48
2022/01/27 11:34:10;;;;;;;14.67;9.90;;;4.50;80.40;;;;;;5039550;28;20979;-49
2022/01/27 11:36:38;;;;;;;15.80;8.87;;;4.60;80.40;;;;;;5072372;28;20467;-48
2022/01/27 11:39:17;;;;;;;15.20;9.60;;;4.50;80.60;;;;;;5070096;28;20466;-48
2022/01/27 11:41:50;;;;;;;15.30;10.00;;;4.50;80.60;;;;;;5037579;28;20494;-49
2022/01/27 11:44:23;;;;;;;17.53;10.57;;;4.50;80.90;;;;;;5041398;28;20459;-48
2022/01/27 11:47:13;;;;;;;16.13;9.27;;;4.50;81.00;;;;;;5037910;28;20455;-49
2022/01/27 11:50:30;;;;;;;20.73;11.60;;;4.60;81.40;;;;;;5039514;28;20462;-49
2022/01/27 11:52:52;;;;;;;14.93;9.13;;;4.60;80.80;;;;;;5041428;28;20469;-49
2022/01/27 11:55:25;;;;;;;14.00;9.40;;;4.60;80.60;;;;;;5046509;28;20976;-48
2022/01/27 11:58:13;;;;;;;13.87;9.17;;;4.60;80.90;;;;;;5043460;28;20541;-48
2022/01/27 12:00:40;;;;;;;16.10;9.37;;;4.60;80.90;;;;;;5040918;28;20469;-48
2022/01/27 12:03:13;;;;;;;16.30;10.73;;;4.60;81.00;;;;;;5073166;28;20486;-48
2022/01/27 12:05:45;;;;;;;14.67;9.73;;;4.60;81.00;;;;;;5041664;28;20960;-48
2022/01/27 12:08:16;;;;;;;15.10;9.90;;;4.60;81.00;;;;;;5045065;28;20462;-48
2022/01/27 12:11:06;;;;;;;15.60;8.13;;;4.70;80.80;;;;;;5041904;28;20446;-48
2022/01/27 12:13:50;;;;;;;15.93;10.20;;;4.70;80.70;;;;;;5042797;28;20551;-48
2022/01/27 12:19:11;;;;;;;20.00;10.33;;;4.70;80.90;;;;;;5046898;28;20950;-48
2022/01/27 12:21:44;;;;;;;16.13;9.90;;;4.60;80.90;;;;;;5042128;28;20984;-48
2022/01/27 12:24:25;;;;;;;13.67;9.93;;;4.60;81.10;;;;;;5040411;28;20485;-48
2022/01/27 12:27:00;;;;;;;16.23;10.40;;;4.60;80.90;;;;;;5042828;28;20453;-48
2022/01/27 12:29:29;;;;;;;16.00;9.53;;;4.60;81.20;;;;;;5048653;28;20548;-48
2022/01/27 12:31:59;;;;;;;19.27;9.50;;;4.60;81.10;;;;;;5043830;28;20959;-48
2022/01/27 12:34:26;;;;;;;15.53;11.00;;;4.60;81.10;;;;;;5042562;28;21048;-48
2022/01/27 12:37:07;;;;;;;18.97;9.80;;;4.60;81.20;;;;;;5040463;28;20458;-48
2022/01/27 12:39:39;;;;;;;16.43;9.63;;;4.70;81.50;;;;;;5045153;28;20455;-48
2022/01/27 12:42:09;;;;;;;16.97;9.93;;;4.70;81.50;;;;;;5039298;28;20577;-48
2022/01/27 12:44:37;;;;;;;13.77;8.33;;;4.70;81.50;;;;;;5055372;28;21220;-48
2022/01/27 12:47:11;;;;;;;13.33;8.87;;;4.70;80.80;;;;;;5074341;28;20459;-48
2022/01/27 12:49:48;;;;;;;19.27;9.13;;;4.70;81.10;;;;;;5043924;28;20984;-48
2022/01/27 12:52:18;;;;;;;17.17;9.57;;;4.70;81.20;;;;;;5049595;28;20470;-48
2022/01/27 12:54:49;;;;;;;17.90;11.07;;;4.70;81.10;;;;;;5038131;28;20556;-48
2022/01/27 12:57:36;;;;;;;17.40;10.33;;;4.60;81.50;;;;;;5045857;28;20455;-48
2022/01/27 13:00:07;;;;;;;18.67;10.50;;;4.60;82.30;;;;;;5054964;28;20470;-48
2022/01/27 13:02:33;;;;;;;17.93;10.37;;;4.60;82.70;;;;;;5037468;28;20490;-49
2022/01/27 13:05:07;;;;;;;18.57;11.70;;;4.60;82.80;;;;;;5040852;28;20446;-48
2022/01/27 13:07:39;;;;;;;20.17;12.53;;;4.60;82.60;;;;;;5041156;28;20525;-48
2022/01/27 13:10:08;;;;;;;19.33;11.90;;;4.60;82.80;;;;;;5043059;28;20598;-48
2022/01/27 13:12:42;;;;;;;18.13;11.13;;;4.50;82.50;;;;;;5039709;28;20453;-48
2022/01/27 13:15:14;;;;;;;27.97;12.90;;;4.40;82.80;;;;;;5041315;28;20959;-48
2022/01/27 13:20:33;;;;;;;19.93;11.27;;;4.30;83.10;;;;;;5036682;28;20471;-48
2022/01/27 13:23:11;;;;;;;16.40;9.90;;;4.30;83.60;;;;;;5044040;28;20864;-48
2022/01/27 13:25:38;;;;;;;21.80;12.27;;;4.40;83.50;;;;;;5074276;28;21061;-48
2022/01/27 13:28:08;;;;;;;23.10;11.77;;;4.40;83.50;;;;;;5041904;28;20457;-48
2022/01/27 13:30:36;;;;;;;19.70;11.90;;;4.40;83.80;;;;;;5044580;28;20973;-48
2022/01/27 13:33:06;;;;;;;23.87;11.90;;;4.50;83.60;;;;;;5043818;28;20462;-48
2022/01/27 13:35:35;;;;;;;20.00;10.87;;;4.60;84.20;;;;;;5045290;28;20516;-47
2022/01/27 13:38:24;;;;;;;18.30;10.80;;;4.70;83.60;;;;;;5040190;28;20486;-47
2022/01/27 13:41:18;;;;;;;19.33;11.20;;;4.70;83.40;;;;;;5042872;28;20459;-47
2022/01/27 13:43:53;;;;;;;17.03;11.37;;;4.80;83.40;;;;;;5033755;28;20565;-48
2022/01/27 13:46:37;;;;;;;19.37;11.37;;;4.80;83.40;;;;;;5025278;28;20474;-47
2022/01/27 13:49:13;;;;;;;14.87;9.40;;;4.90;83.60;;;;;;5037592;28;20545;-47
2022/01/27 13:51:51;;;;;;;20.70;10.67;;;4.90;83.30;;;;;;5042775;28;20804;-47
2022/01/27 13:54:43;;;;;;;17.13;9.60;;;5.00;83.30;;;;;;5055841;28;20472;-47
2022/01/27 13:57:17;;;;;;;17.33;9.10;;;5.00;83.20;;;;;;5033834;28;20498;-47